createdAt,value
2017-09-10T00:02:17.305Z,97051.79
2017-09-10T00:04:46.412Z,97057.68
2017-09-10T00:07:15.504Z,97059.64
2017-09-10T00:09:44.618Z,97055.38
2017-09-10T00:12:12.982Z,97056.93
2017-09-10T00:14:41.773Z,97057.37
2017-09-10T00:17:10.091Z,97054.41
2017-09-10T00:19:39.270Z,97053.95
2017-09-10T00:22:08.381Z,97062.52
2017-09-10T00:24:36.703Z,97068.42
2017-09-10T00:27:05.056Z,97068.67
2017-09-10T00:29:35.314Z,97072.45
2017-09-10T00:32:03.661Z,97079.77
2017-09-10T00:34:31.993Z,97072.25
2017-09-10T00:37:02.012Z,97076.49
2017-09-10T00:39:30.359Z,97079.97
2017-09-10T00:41:58.689Z,97076.02
2017-09-10T00:44:27.034Z,97075.36
2017-09-10T00:46:55.350Z,97077.50
2017-09-10T00:49:24.915Z,97083.80
2017-09-10T00:51:54.144Z,97084.72
2017-09-10T00:54:22.509Z,97093.69
2017-09-10T00:56:51.621Z,97085.77
2017-09-10T00:59:19.977Z,97089.70
2017-09-10T01:01:48.327Z,97089.55
2017-09-10T01:04:16.681Z,97092.27
2017-09-10T01:06:46.930Z,97094.15
2017-09-10T01:09:15.264Z,97089.45
2017-09-10T01:11:43.582Z,97096.05
2017-09-10T01:14:11.963Z,97094.07
2017-09-10T01:16:40.285Z,97098.13
2017-09-10T01:19:09.382Z,97098.27
2017-09-10T01:21:38.463Z,97101.73
2017-09-10T01:24:07.107Z,97108.28
2017-09-10T01:26:35.446Z,97108.78
2017-09-10T01:29:04.546Z,97117.98
2017-09-10T01:31:32.886Z,97116.45
2017-09-10T01:34:01.206Z,97119.59
2017-09-10T01:36:31.470Z,97120.44
2017-09-10T01:38:59.791Z,97122.73
2017-09-10T01:41:28.916Z,97127.23
2017-09-10T01:43:57.256Z,97125.48
2017-09-10T01:46:25.571Z,97123.82
2017-09-10T01:48:54.689Z,97113.18
2017-09-10T01:51:23.013Z,97108.53
2017-09-10T01:53:51.354Z,97120.00
2017-09-10T01:56:19.674Z,97113.66
2017-09-10T01:58:48.015Z,97115.45
2017-09-10T02:01:17.045Z,97115.85
2017-09-10T02:03:45.427Z,97119.70
2017-09-10T02:06:13.792Z,97118.03
2017-09-10T02:08:43.335Z,97118.55
2017-09-10T02:11:11.668Z,97120.52
2017-09-10T02:13:39.989Z,97123.36
2017-09-10T02:16:08.331Z,97121.03
2017-09-10T02:18:36.685Z,97121.49
2017-09-10T02:21:05.033Z,97123.05
2017-09-10T02:23:34.135Z,97129.19
2017-09-10T02:26:03.264Z,97127.66
2017-09-10T02:28:31.595Z,97134.43
2017-09-10T02:30:59.928Z,97131.33
2017-09-10T02:33:28.299Z,97128.05
2017-09-10T02:35:56.658Z,97123.00
2017-09-10T02:38:24.993Z,97129.42
2017-09-10T02:40:53.346Z,97128.61
2017-09-10T02:43:21.679Z,97133.14
2017-09-10T02:45:50.785Z,97131.37
2017-09-10T02:48:19.123Z,97138.18
2017-09-10T02:50:47.480Z,97140.80
2017-09-10T02:53:15.824Z,97146.72
2017-09-10T02:55:44.932Z,97147.08
2017-09-10T02:58:13.266Z,97146.59
2017-09-10T03:00:41.575Z,97153.55
2017-09-10T03:03:10.686Z,97155.38
2017-09-10T03:05:39.002Z,97156.66
2017-09-10T03:08:07.609Z,97155.23
2017-09-10T03:10:35.930Z,97153.47
2017-09-10T03:13:04.245Z,97157.42
2017-09-10T03:15:32.626Z,97159.03
2017-09-10T03:18:00.954Z,97161.31
2017-09-10T03:20:29.305Z,97164.23
2017-09-10T03:22:57.628Z,97158.72
2017-09-10T03:25:26.389Z,97165.72
2017-09-10T03:27:54.704Z,97173.98
2017-09-10T03:30:23.801Z,97178.38
2017-09-10T03:32:52.149Z,97171.59
2017-09-10T03:35:20.479Z,97178.81
2017-09-10T03:37:48.833Z,97179.52
2017-09-10T03:40:17.166Z,97186.38
2017-09-10T03:42:45.517Z,97190.52
2017-09-10T03:45:13.846Z,97187.67
2017-09-10T03:47:42.720Z,97192.43
2017-09-10T03:50:11.072Z,97197.39
2017-09-10T03:52:39.448Z,97198.66
2017-09-10T03:55:07.820Z,97201.09
2017-09-10T03:57:36.165Z,97203.76
2017-09-10T04:00:04.814Z,97211.81
2017-09-10T04:02:33.220Z,97210.31
2017-09-10T04:05:02.308Z,97219.70
2017-09-10T04:07:30.660Z,97227.05
2017-09-10T04:09:58.989Z,97220.05
2017-09-10T04:12:27.365Z,97231.08
2017-09-10T04:14:55.685Z,97232.10
2017-09-10T04:17:24.516Z,97233.39
2017-09-10T04:19:53.591Z,97239.55
2017-09-10T04:22:21.920Z,97244.18
2017-09-10T04:24:50.265Z,97242.41
2017-09-10T04:27:18.588Z,97241.45
2017-09-10T04:29:46.914Z,97242.50
2017-09-10T04:32:15.266Z,97246.02
2017-09-10T04:34:43.613Z,97245.65
2017-09-10T04:37:11.941Z,97244.81
2017-09-10T04:39:40.261Z,97248.25
2017-09-10T04:42:08.607Z,97248.72
2017-09-10T04:44:36.935Z,97251.72
2017-09-10T04:47:05.301Z,97253.52
2017-09-10T04:49:33.617Z,97252.98
2017-09-10T04:52:01.958Z,97253.02
2017-09-10T04:54:30.302Z,97250.19
2017-09-10T04:56:58.615Z,97255.03
2017-09-10T04:59:26.939Z,97253.97
2017-09-10T05:01:55.259Z,97248.66
2017-09-10T05:04:23.608Z,97259.20
2017-09-10T05:06:51.941Z,97260.73
2017-09-10T05:09:20.279Z,97262.86
2017-09-10T05:11:48.619Z,97272.44
2017-09-10T05:14:17.827Z,97267.80
2017-09-10T05:16:46.159Z,97271.59
2017-09-10T05:19:15.235Z,97267.25
2017-09-10T05:21:43.603Z,97267.69
2017-09-10T05:24:11.928Z,97270.09
2017-09-10T05:26:40.270Z,97274.18
2017-09-10T05:29:08.602Z,97276.60
2017-09-10T05:31:36.925Z,97283.77
2017-09-10T05:34:05.264Z,97290.52
2017-09-10T05:36:33.591Z,97297.64
2017-09-10T05:39:01.945Z,97298.95
2017-09-10T05:41:30.310Z,97301.06
2017-09-10T05:43:58.674Z,97303.09
2017-09-10T05:46:27.033Z,97307.00
2017-09-10T05:48:56.127Z,97311.20
2017-09-10T05:51:25.227Z,97319.73
2017-09-10T05:53:53.563Z,97322.27
2017-09-10T05:56:21.890Z,97320.55
2017-09-10T05:58:50.237Z,97324.69
2017-09-10T06:01:18.564Z,97326.69
2017-09-10T06:03:46.904Z,97327.91
2017-09-10T06:06:15.230Z,97331.09
2017-09-10T06:08:43.581Z,97327.05
2017-09-10T06:11:12.684Z,97327.16
2017-09-10T06:13:40.994Z,97322.72
2017-09-10T06:16:09.323Z,97322.18
2017-09-10T06:18:38.456Z,97330.36
2017-09-10T06:21:06.795Z,97331.47
2017-09-10T06:23:35.910Z,97334.52
2017-09-10T06:26:04.265Z,97331.58
2017-09-10T06:28:32.608Z,97327.09
2017-09-10T06:31:00.962Z,97338.03
2017-09-10T06:33:29.282Z,97338.70
2017-09-10T06:35:57.623Z,97340.80
2017-09-10T06:38:26.371Z,97337.64
2017-09-10T06:40:54.720Z,97334.30
2017-09-10T06:43:23.099Z,97330.77
2017-09-10T06:45:55.505Z,97330.04
2017-09-10T06:48:23.842Z,97325.77
2017-09-10T06:50:52.163Z,97328.50
2017-09-10T06:53:20.762Z,97331.36
2017-09-10T06:55:49.102Z,97327.14
2017-09-10T06:58:17.437Z,97332.33
2017-09-10T07:00:45.778Z,97331.94
2017-09-10T07:03:14.106Z,97318.35
2017-09-10T07:05:42.460Z,97323.16
2017-09-10T07:08:11.175Z,97321.03
2017-09-10T07:10:39.531Z,97324.30
2017-09-10T07:13:08.307Z,97311.73
2017-09-10T07:15:37.466Z,97324.78
2017-09-10T07:18:06.618Z,97332.72
2017-09-10T07:20:34.996Z,97334.70
2017-09-10T07:23:04.120Z,97332.80
2017-09-10T07:25:32.450Z,97333.33
2017-09-10T07:28:01.366Z,97333.36
2017-09-10T07:30:30.377Z,97338.73
2017-09-10T07:32:59.231Z,97337.97
2017-09-10T07:35:28.905Z,97336.41
2017-09-10T07:37:58.082Z,97337.89
2017-09-10T07:40:27.462Z,97339.04
2017-09-10T07:42:56.976Z,97348.66
2017-09-10T07:45:26.141Z,97347.74
2017-09-10T07:47:54.491Z,97343.84
2017-09-10T07:50:22.915Z,97350.92
2017-09-10T07:52:52.034Z,97353.88
2017-09-10T07:55:20.363Z,97348.44
2017-09-10T07:57:48.995Z,97349.16
2017-09-10T08:00:17.368Z,97352.01
2017-09-10T08:02:46.518Z,97360.80
2017-09-10T08:05:14.960Z,97358.36
2017-09-10T08:07:43.737Z,97366.41
2017-09-10T08:10:12.838Z,97360.30
2017-09-10T08:12:41.246Z,97362.58
2017-09-10T08:15:09.911Z,97359.47
2017-09-10T08:17:38.262Z,97366.75
2017-09-10T08:20:06.642Z,97366.89
2017-09-10T08:22:35.048Z,97373.78
2017-09-10T08:25:04.962Z,97373.31
2017-09-10T08:27:33.329Z,97380.81
2017-09-10T08:30:01.674Z,97376.02
2017-09-10T08:32:30.416Z,97389.27
2017-09-10T08:34:58.757Z,97394.67
2017-09-10T08:37:27.112Z,97397.26
2017-09-10T08:39:55.481Z,97398.27
2017-09-10T08:42:23.840Z,97395.89
2017-09-10T08:44:52.295Z,97400.04
2017-09-10T08:47:21.415Z,97407.67
2017-09-10T08:49:49.789Z,97405.30
2017-09-10T08:52:19.056Z,97412.68
2017-09-10T08:54:48.198Z,97402.00
2017-09-10T08:57:18.478Z,97407.38
2017-09-10T08:59:46.834Z,97410.25
2017-09-10T09:02:15.451Z,97410.93
2017-09-10T09:04:43.788Z,97413.91
2017-09-10T09:07:12.882Z,97408.75
2017-09-10T09:09:41.231Z,97402.58
2017-09-10T09:12:10.204Z,97412.99
2017-09-10T09:14:38.633Z,97415.52
2017-09-10T09:17:06.980Z,97408.78
2017-09-10T09:19:35.794Z,97410.95
2017-09-10T09:22:04.186Z,97406.77
2017-09-10T09:24:32.526Z,97410.70
2017-09-10T09:27:00.898Z,97410.14
2017-09-10T09:29:29.993Z,97400.23
2017-09-10T09:31:58.345Z,97404.17
2017-09-10T09:34:26.675Z,97405.95
2017-09-10T09:36:55.028Z,97407.83
2017-09-10T09:39:23.379Z,97415.81
2017-09-10T09:41:51.719Z,97410.14
2017-09-10T09:44:20.089Z,97410.25
2017-09-10T09:46:49.189Z,97409.56
2017-09-10T09:49:17.550Z,97411.68
2017-09-10T09:51:45.880Z,97413.61
2017-09-10T09:54:15.037Z,97420.33
2017-09-10T09:56:43.720Z,97415.63
2017-09-10T09:59:12.379Z,97423.66
2017-09-10T10:01:40.741Z,97426.53
2017-09-10T10:04:09.064Z,97426.36
2017-09-10T10:06:38.570Z,97429.00
2017-09-10T10:09:06.915Z,97429.96
2017-09-10T10:11:35.259Z,97425.08
2017-09-10T10:14:03.610Z,97427.92
2017-09-10T10:16:31.995Z,97426.25
2017-09-10T10:19:00.480Z,97426.95
2017-09-10T10:21:29.572Z,97431.25
2017-09-10T10:23:58.255Z,97437.27
2017-09-10T10:26:26.581Z,97436.95
2017-09-10T10:28:54.921Z,97438.93
2017-09-10T10:31:23.323Z,97446.50
2017-09-10T10:33:51.639Z,97450.41
2017-09-10T10:36:20.000Z,97452.02
2017-09-10T10:38:49.233Z,97451.19
2017-09-10T10:41:17.595Z,97446.77
2017-09-10T10:43:45.954Z,97450.61
2017-09-10T10:46:14.297Z,97449.70
2017-09-10T10:48:47.889Z,97455.84
2017-09-10T10:51:16.270Z,97448.27
2017-09-10T10:53:45.410Z,97442.71
2017-09-10T10:56:13.887Z,97447.17
2017-09-10T10:58:42.863Z,97456.00
2017-09-10T11:01:11.242Z,97458.61
2017-09-10T11:03:39.584Z,97453.51
2017-09-10T11:06:07.965Z,97447.92
2017-09-10T11:08:36.328Z,97447.52
2017-09-10T11:11:05.128Z,97449.00
2017-09-10T11:13:33.494Z,97442.20
2017-09-10T11:16:01.871Z,97436.05
2017-09-10T11:18:30.240Z,97436.45
2017-09-10T11:20:58.573Z,97436.67
2017-09-10T11:23:28.306Z,97435.20
2017-09-10T11:25:56.660Z,97430.23
2017-09-10T11:28:25.047Z,97428.05
2017-09-10T11:30:53.400Z,97426.28
2017-09-10T11:33:21.716Z,97424.70
2017-09-10T11:35:50.073Z,97423.30
2017-09-10T11:38:19.185Z,97420.88
2017-09-10T11:40:47.559Z,97418.78
2017-09-10T11:43:15.907Z,97420.64
2017-09-10T11:45:44.264Z,97426.38
2017-09-10T11:48:12.696Z,97418.89
2017-09-10T11:50:41.028Z,97423.67
2017-09-10T11:53:09.388Z,97416.59
2017-09-10T11:55:37.720Z,97418.90
2017-09-10T11:58:06.065Z,97425.72
2017-09-10T12:00:34.456Z,97427.06
2017-09-10T12:03:03.309Z,97424.77
2017-09-10T12:05:31.640Z,97428.95
2017-09-10T12:07:59.976Z,97425.44
2017-09-10T12:10:28.324Z,97428.25
2017-09-10T12:12:57.407Z,97426.25
2017-09-10T12:15:26.539Z,97428.75
2017-09-10T12:17:54.862Z,97421.02
2017-09-10T12:20:23.229Z,97422.73
2017-09-10T12:22:51.581Z,97418.68
2017-09-10T12:25:19.913Z,97417.55
2017-09-10T12:27:48.257Z,97416.22
2017-09-10T12:30:16.598Z,97412.94
2017-09-10T12:32:45.741Z,97411.44
2017-09-10T12:35:14.079Z,97417.44
2017-09-10T12:37:42.710Z,97414.95
2017-09-10T12:40:11.050Z,97417.80
2017-09-10T12:42:39.387Z,97419.60
2017-09-10T12:45:07.741Z,97407.85
2017-09-10T12:47:36.074Z,97413.23
2017-09-10T12:50:04.421Z,97406.42
2017-09-10T12:52:32.755Z,97409.06
2017-09-10T12:55:01.154Z,97414.81
2017-09-10T12:57:29.500Z,97413.16
2017-09-10T12:59:58.611Z,97408.22
2017-09-10T13:02:26.964Z,97404.38
2017-09-10T13:04:55.313Z,97396.05
2017-09-10T13:07:23.674Z,97387.41
2017-09-10T13:09:52.016Z,97383.30
2017-09-10T13:12:21.151Z,97383.63
2017-09-10T13:14:49.494Z,97375.11
2017-09-10T13:17:17.828Z,97376.81
2017-09-10T13:19:46.166Z,97373.97
2017-09-10T13:22:14.501Z,97362.38
2017-09-10T13:24:42.928Z,97357.48
2017-09-10T13:27:11.269Z,97370.34
2017-09-10T13:29:39.990Z,97359.89
2017-09-10T13:32:08.310Z,97373.91
2017-09-10T13:34:36.638Z,97366.13
2017-09-10T13:37:05.009Z,97373.11
2017-09-10T13:39:34.100Z,97368.01
2017-09-10T13:42:02.463Z,97362.61
2017-09-10T13:44:30.807Z,97353.17
2017-09-10T13:46:59.797Z,97356.73
2017-09-10T13:49:28.137Z,97354.46
2017-09-10T13:51:57.276Z,97352.41
2017-09-10T13:54:25.645Z,97357.78
2017-09-10T13:56:53.972Z,97357.77
2017-09-10T13:59:22.307Z,97357.80
2017-09-10T14:01:50.635Z,97351.28
2017-09-10T14:04:19.012Z,97347.00
2017-09-10T14:06:47.338Z,97344.91
2017-09-10T14:09:15.676Z,97338.02
2017-09-10T14:11:44.035Z,97334.44
2017-09-10T14:14:12.383Z,97342.58
2017-09-10T14:16:40.745Z,97340.17
2017-09-10T14:19:09.103Z,97342.48
2017-09-10T14:21:37.468Z,97334.28
2017-09-10T14:24:05.810Z,97329.22
2017-09-10T14:26:34.162Z,97338.47
2017-09-10T14:29:02.532Z,97338.88
2017-09-10T14:31:31.633Z,97330.83
2017-09-10T14:33:59.976Z,97327.20
2017-09-10T14:36:28.306Z,97314.89
2017-09-10T14:38:57.077Z,97321.07
2017-09-10T14:41:25.412Z,97319.79
2017-09-10T14:43:53.736Z,97325.58
2017-09-10T14:46:22.090Z,97328.16
2017-09-10T14:48:50.412Z,97320.95
2017-09-10T14:51:18.769Z,97320.25
2017-09-10T14:53:47.871Z,97324.53
2017-09-10T14:56:17.000Z,97328.68
2017-09-10T14:58:45.346Z,97313.48
2017-09-10T15:01:13.678Z,97306.83
2017-09-10T15:03:42.033Z,97308.59
2017-09-10T15:06:10.359Z,97306.45
2017-09-10T15:08:38.723Z,97300.56
2017-09-10T15:11:07.063Z,97305.91
2017-09-10T15:13:35.668Z,97293.30
2017-09-10T15:16:03.992Z,97291.20
2017-09-10T15:18:32.341Z,97287.33
2017-09-10T15:21:00.693Z,97286.20
2017-09-10T15:23:29.036Z,97283.52
2017-09-10T15:25:58.168Z,97285.11
2017-09-10T15:28:26.484Z,97282.41
2017-09-10T15:30:54.866Z,97276.44
2017-09-10T15:33:23.237Z,97282.88
2017-09-10T15:35:51.580Z,97286.30
2017-09-10T15:38:19.970Z,97280.72
2017-09-10T15:40:48.296Z,97285.88
2017-09-10T15:43:16.652Z,97283.50
2017-09-10T15:45:45.468Z,97285.91
2017-09-10T15:48:13.825Z,97291.92
2017-09-10T15:50:42.169Z,97298.90
2017-09-10T15:53:10.510Z,97297.02
2017-09-10T15:55:40.939Z,97300.20
2017-09-10T15:58:10.098Z,97296.92
2017-09-10T16:00:38.421Z,97294.77
2017-09-10T16:03:07.537Z,97287.22
2017-09-10T16:05:35.880Z,97284.29
2017-09-10T16:08:04.314Z,97280.71
2017-09-10T16:10:32.650Z,97274.30
2017-09-10T16:13:01.004Z,97274.17
2017-09-10T16:15:29.383Z,97265.27
2017-09-10T16:17:57.737Z,97271.63
2017-09-10T16:20:26.068Z,97268.29
2017-09-10T16:22:55.515Z,97265.64
2017-09-10T16:25:23.841Z,97263.52
2017-09-10T16:27:52.171Z,97257.42
2017-09-10T16:30:20.532Z,97247.30
2017-09-10T16:32:48.868Z,97240.67
2017-09-10T16:35:17.846Z,97232.09
2017-09-10T16:37:46.173Z,97234.89
2017-09-10T16:40:15.520Z,97236.23
2017-09-10T16:42:44.151Z,97229.80
2017-09-10T16:45:13.320Z,97229.02
2017-09-10T16:47:41.670Z,97230.87
2017-09-10T16:50:10.028Z,97230.55
2017-09-10T16:52:38.417Z,97233.59
2017-09-10T16:55:06.752Z,97228.90
2017-09-10T16:57:35.108Z,97228.48
2017-09-10T17:00:03.440Z,97228.05
2017-09-10T17:02:34.534Z,97219.67
2017-09-10T17:05:02.878Z,97211.77
2017-09-10T17:07:31.219Z,97215.06
2017-09-10T17:09:59.585Z,97219.06
2017-09-10T17:12:28.311Z,97209.38
2017-09-10T17:14:56.669Z,97202.06
2017-09-10T17:17:25.000Z,97205.03
2017-09-10T17:19:53.345Z,97201.16
2017-09-10T17:22:22.498Z,97204.33
2017-09-10T17:24:50.852Z,97206.29
2017-09-10T17:27:19.214Z,97213.41
2017-09-10T17:29:47.546Z,97214.46
2017-09-10T17:32:15.881Z,97218.00
2017-09-10T17:34:44.227Z,97219.20
2017-09-10T17:37:12.553Z,97210.52
2017-09-10T17:39:40.893Z,97216.89
2017-09-10T17:42:09.698Z,97215.12
2017-09-10T17:44:38.322Z,97214.23
2017-09-10T17:47:06.676Z,97212.52
2017-09-10T17:49:35.004Z,97218.52
2017-09-10T17:52:03.351Z,97216.64
2017-09-10T17:54:33.740Z,97214.95
2017-09-10T17:57:02.099Z,97211.06
2017-09-10T17:59:30.434Z,97211.14
2017-09-10T18:01:59.071Z,97209.94
2017-09-10T18:04:27.432Z,97204.20
2017-09-10T18:06:55.763Z,97206.34
2017-09-10T18:09:24.106Z,97202.02
2017-09-10T18:11:52.438Z,97211.73
2017-09-10T18:14:21.059Z,97206.51
2017-09-10T18:16:49.383Z,97214.55
2017-09-10T18:19:17.727Z,97221.20
2017-09-10T18:21:46.088Z,97223.91
2017-09-10T18:24:14.415Z,97226.14
2017-09-10T18:26:42.755Z,97232.84
2017-09-10T18:29:11.165Z,97234.12
2017-09-10T18:31:41.138Z,97235.95
2017-09-10T18:34:10.248Z,97244.91
2017-09-10T18:36:40.516Z,97240.11
2017-09-10T18:39:09.306Z,97242.41
2017-09-10T18:41:37.890Z,97249.27
2017-09-10T18:44:06.510Z,97250.69
2017-09-10T18:46:34.899Z,97246.80
2017-09-10T18:49:03.265Z,97240.45
2017-09-10T18:51:31.613Z,97235.15
2017-09-10T18:54:00.120Z,97235.58
2017-09-10T18:56:28.476Z,97233.95
2017-09-10T18:58:56.843Z,97236.26
2017-09-10T19:01:25.996Z,97236.17
2017-09-10T19:03:54.324Z,97236.02
2017-09-10T19:06:23.000Z,97229.17
2017-09-10T19:08:52.208Z,97228.25
2017-09-10T19:11:21.299Z,97227.69
2017-09-10T19:13:49.654Z,97223.14
2017-09-10T19:16:18.004Z,97217.33
2017-09-10T19:18:46.631Z,97220.13
2017-09-10T19:21:15.761Z,97225.77
2017-09-10T19:23:44.097Z,97229.56
2017-09-10T19:26:12.445Z,97229.26
2017-09-10T19:28:40.782Z,97226.64
2017-09-10T19:31:10.202Z,97219.41
2017-09-10T19:33:38.554Z,97218.05
2017-09-10T19:36:07.678Z,97223.80
2017-09-10T19:38:36.027Z,97219.52
2017-09-10T19:41:04.367Z,97218.01
2017-09-10T19:43:32.775Z,97217.24
2017-09-10T19:46:01.104Z,97224.27
2017-09-10T19:48:29.463Z,97230.66
2017-09-10T19:50:57.809Z,97227.43
2017-09-10T19:53:27.078Z,97225.02
2017-09-10T19:55:55.424Z,97229.94
2017-09-10T19:58:23.745Z,97216.77
2017-09-10T20:00:52.108Z,97207.38
2017-09-10T20:03:20.424Z,97212.02
2017-09-10T20:05:48.781Z,97212.41
2017-09-10T20:08:17.136Z,97222.33
2017-09-10T20:10:45.497Z,97217.59
2017-09-10T20:13:13.854Z,97213.06
2017-09-10T20:15:42.204Z,97213.91
2017-09-10T20:18:10.549Z,97205.73
2017-09-10T20:20:38.868Z,97199.49
2017-09-10T20:23:07.227Z,97203.63
2017-09-10T20:25:35.565Z,97205.03
2017-09-10T20:28:04.947Z,97200.35
2017-09-10T20:30:34.069Z,97202.59
2017-09-10T20:33:03.163Z,97199.66
2017-09-10T20:35:32.417Z,97199.16
2017-09-10T20:38:00.751Z,97200.10
2017-09-10T20:40:29.092Z,97193.22
2017-09-10T20:42:57.411Z,97190.67
2017-09-10T20:45:26.580Z,97193.16
2017-09-10T20:47:54.897Z,97188.97
2017-09-10T20:50:23.254Z,97185.88
2017-09-10T20:52:51.606Z,97180.27
2017-09-10T20:55:19.955Z,97174.52
2017-09-10T20:57:48.307Z,97175.53
2017-09-10T21:00:17.387Z,97168.11
2017-09-10T21:02:46.026Z,97164.80
2017-09-10T21:05:14.350Z,97164.38
2017-09-10T21:07:42.727Z,97159.00
2017-09-10T21:10:11.064Z,97152.79
2017-09-10T21:12:39.371Z,97152.07
2017-09-10T21:15:07.719Z,97151.30
2017-09-10T21:17:36.944Z,97150.46
2017-09-10T21:20:05.298Z,97145.30
2017-09-10T21:22:33.642Z,97147.11
2017-09-10T21:25:01.966Z,97148.27
2017-09-10T21:27:30.310Z,97143.80
2017-09-10T21:29:59.658Z,97140.17
2017-09-10T21:32:28.033Z,97139.33
2017-09-10T21:34:56.365Z,97140.20
2017-09-10T21:37:24.713Z,97132.07
2017-09-10T21:39:53.067Z,97133.98
2017-09-10T21:42:21.396Z,97137.78
2017-09-10T21:44:49.746Z,97134.87
2017-09-10T21:47:18.078Z,97133.68
2017-09-10T21:49:46.450Z,97132.77
2017-09-10T21:52:14.800Z,97127.78
2017-09-10T21:54:43.145Z,97124.19
2017-09-10T21:57:12.207Z,97112.44
2017-09-10T21:59:40.536Z,97113.70
2017-09-10T22:02:08.881Z,97107.73
2017-09-10T22:04:37.191Z,97109.34
2017-09-10T22:07:05.518Z,97101.48
2017-09-10T22:09:33.839Z,97096.95
2017-09-10T22:12:02.233Z,97087.45
2017-09-10T22:14:30.567Z,97070.55
2017-09-10T22:16:58.921Z,97065.34
2017-09-10T22:19:28.021Z,97068.80
2017-09-10T22:21:56.365Z,97070.78
2017-09-10T22:24:24.737Z,97066.85
2017-09-10T22:26:53.056Z,97068.49
2017-09-10T22:29:22.146Z,97060.57
2017-09-10T22:31:50.480Z,97065.41
2017-09-10T22:34:19.071Z,97069.77
2017-09-10T22:36:47.397Z,97060.03
2017-09-10T22:39:16.498Z,97057.17
2017-09-10T22:41:45.609Z,97058.78
2017-09-10T22:44:13.919Z,97059.11
2017-09-10T22:46:42.252Z,97056.49
2017-09-10T22:49:11.347Z,97054.61
2017-09-10T22:51:40.457Z,97047.61
2017-09-10T22:54:08.891Z,97034.12
2017-09-10T22:56:37.280Z,97023.73
2017-09-10T22:59:05.633Z,97018.06
2017-09-10T23:01:33.950Z,97019.91
2017-09-10T23:04:03.198Z,97020.24
2017-09-10T23:06:31.521Z,97019.56
2017-09-10T23:08:59.834Z,97021.27
2017-09-10T23:11:28.458Z,97025.08
2017-09-10T23:13:56.784Z,97024.53
2017-09-10T23:16:25.675Z,97022.72
2017-09-10T23:18:54.023Z,97019.60
2017-09-10T23:21:22.348Z,97015.78
2017-09-10T23:23:51.008Z,97013.50
2017-09-10T23:26:19.315Z,97005.81
2017-09-10T23:28:47.654Z,97004.08
2017-09-10T23:31:15.998Z,97001.50
2017-09-10T23:33:45.051Z,96999.86
2017-09-10T23:36:14.347Z,96999.62
2017-09-10T23:38:42.686Z,96990.06
2017-09-10T23:41:11.015Z,96994.08
2017-09-10T23:43:39.365Z,96994.72
2017-09-10T23:46:08.482Z,96993.47
2017-09-10T23:48:36.840Z,96990.25
2017-09-10T23:51:05.160Z,96980.56
2017-09-10T23:53:33.505Z,96972.76
2017-09-10T23:56:01.842Z,96974.57
2017-09-10T23:58:30.172Z,96972.91
